KECS/ECS METAR and TAF weather

Enter ICAO airport designator
Station Type Date Time Source
KECS METAR 2021/09/25 12:55 UTC NOAA

KECS 251255Z AUTO 02005KT 10SM CLR 05/00 A3010 RMK AO2


Station Type Date Time Source
KECS Decoded METAR 2021/09/25 12:55 UTC NOAA

Station name not available
Sep 25, 2021 - 08:55 AM EDT / 2021.09.25 1255 UTC
Wind: from the NNE (020 degrees) at 6 MPH (5 KT):0
Visibility: 10 mile(s):0
Sky conditions: clear
Temperature: 41 F (5 C)
Dew Point: 32 F (0 C)
Relative Humidity: 70%
Pressure (altimeter): 30.1 in. Hg (1019 hPa)
ob: KECS 251255Z AUTO 02005KT 10SM CLR 05/00 A3010 RMK AO2
cycle: 13

Station Type Date Time Source
KECS TAF UTC NOAA

Error!

Example: see airport list